sensor_id;sensor_type;location;lat;lon;timestamp;pressure;altitude;pressure_sealevel;temperature;humidity
53719;BME280;39616;48.872;9.390;2023-05-20T00:02:23;98454.00;;;9.64;100.00
53719;BME280;39616;48.872;9.390;2023-05-20T00:04:53;98459.72;;;9.62;100.00
53719;BME280;39616;48.872;9.390;2023-05-20T00:07:23;98453.22;;;9.63;100.00
53719;BME280;39616;48.872;9.390;2023-05-20T00:09:54;98453.78;;;9.60;100.00
53719;BME280;39616;48.872;9.390;2023-05-20T00:12:24;98453.78;;;9.60;100.00
53719;BME280;39616;48.872;9.390;2023-05-20T00:14:54;98451.38;;;9.59;100.00
53719;BME280;39616;48.872;9.390;2023-05-20T00:17:25;98458.69;;;9.58;100.00
53719;BME280;39616;48.872;9.390;2023-05-20T00:19:57;98453.03;;;9.55;100.00
53719;BME280;39616;48.872;9.390;2023-05-20T00:22:29;98449.00;;;9.52;100.00
53719;BME280;39616;48.872;9.390;2023-05-20T00:24:59;98448.19;;;9.52;100.00
53719;BME280;39616;48.872;9.390;2023-05-20T00:27:29;98440.38;;;9.50;100.00
53719;BME280;39616;48.872;9.390;2023-05-20T00:30:00;98441.97;;;9.51;100.00
53719;BME280;39616;48.872;9.390;2023-05-20T00:32:30;98437.91;;;9.54;100.00
53719;BME280;39616;48.872;9.390;2023-05-20T00:35:01;98440.84;;;9.57;100.00
53719;BME280;39616;48.872;9.390;2023-05-20T00:37:31;98433.47;;;9.63;100.00
53719;BME280;39616;48.872;9.390;2023-05-20T00:40:02;98441.28;;;9.64;100.00
53719;BME280;39616;48.872;9.390;2023-05-20T00:42:32;98436.41;;;9.66;100.00
53719;BME280;39616;48.872;9.390;2023-05-20T00:45:03;98438.06;;;9.62;100.00
53719;BME280;39616;48.872;9.390;2023-05-20T00:47:34;98437.78;;;9.64;100.00
53719;BME280;39616;48.872;9.390;2023-05-20T00:50:06;98441.50;;;9.68;100.00
53719;BME280;39616;48.872;9.390;2023-05-20T00:52:37;98435.81;;;9.70;100.00
53719;BME280;39616;48.872;9.390;2023-05-20T00:55:08;98430.41;;;9.70;100.00
53719;BME280;39616;48.872;9.390;2023-05-20T00:57:38;98438.19;;;9.76;100.00
53719;BME280;39616;48.872;9.390;2023-05-20T01:00:09;98435.75;;;9.75;100.00
53719;BME280;39616;48.872;9.390;2023-05-20T01:02:39;98440.09;;;9.76;100.00
53719;BME280;39616;48.872;9.390;2023-05-20T01:05:10;98433.59;;;9.77;100.00
53719;BME280;39616;48.872;9.390;2023-05-20T01:07:40;98436.22;;;9.82;100.00
53719;BME280;39616;48.872;9.390;2023-05-20T01:10:11;98428.63;;;9.84;100.00
53719;BME280;39616;48.872;9.390;2023-05-20T01:12:50;98426.16;;;9.87;100.00
53719;BME280;39616;48.872;9.390;2023-05-20T01:15:26;98428.47;;;9.94;100.00
53719;BME280;39616;48.872;9.390;2023-05-20T01:17:59;98422.25;;;9.93;100.00
53719;BME280;39616;48.872;9.390;2023-05-20T01:20:31;98420.59;;;9.98;100.00
53719;BME280;39616;48.872;9.390;2023-05-20T01:23:02;98419.22;;;10.00;100.00
53719;BME280;39616;48.872;9.390;2023-05-20T01:25:33;98415.94;;;10.03;100.00
53719;BME280;39616;48.872;9.390;2023-05-20T01:28:03;98410.72;;;10.07;100.00
53719;BME280;39616;48.872;9.390;2023-05-20T01:30:43;98412.34;;;10.08;100.00
53719;BME280;39616;48.872;9.390;2023-05-20T01:33:19;98405.00;;;10.08;100.00
53719;BME280;39616;48.872;9.390;2023-05-20T01:35:50;98409.13;;;10.06;100.00
53719;BME280;39616;48.872;9.390;2023-05-20T01:38:20;98401.00;;;10.06;100.00
53719;BME280;39616;48.872;9.390;2023-05-20T01:40:53;98401.28;;;10.04;100.00
53719;BME280;39616;48.872;9.390;2023-05-20T01:43:24;98406.47;;;10.01;100.00
53719;BME280;39616;48.872;9.390;2023-05-20T01:45:56;98407.88;;;9.98;100.00
53719;BME280;39616;48.872;9.390;2023-05-20T01:48:26;98406.78;;;9.99;100.00
53719;BME280;39616;48.872;9.390;2023-05-20T01:50:56;98404.84;;;10.00;100.00
53719;BME280;39616;48.872;9.390;2023-05-20T01:53:27;98403.75;;;10.01;100.00
53719;BME280;39616;48.872;9.390;2023-05-20T01:55:57;98409.69;;;10.03;100.00
53719;BME280;39616;48.872;9.390;2023-05-20T01:58:27;98408.69;;;9.99;100.00
53719;BME280;39616;48.872;9.390;2023-05-20T02:00:58;98402.22;;;9.95;100.00
53719;BME280;39616;48.872;9.390;2023-05-20T02:03:29;98412.03;;;9.90;100.00
53719;BME280;39616;48.872;9.390;2023-05-20T02:05:59;98403.91;;;9.90;100.00
53719;BME280;39616;48.872;9.390;2023-05-20T02:08:29;98404.75;;;9.86;100.00
53719;BME280;39616;48.872;9.390;2023-05-20T02:11:00;98399.63;;;9.84;100.00
53719;BME280;39616;48.872;9.390;2023-05-20T02:13:30;98398.53;;;9.85;100.00
53719;BME280;39616;48.872;9.390;2023-05-20T02:16:00;98399.91;;;9.83;100.00
53719;BME280;39616;48.872;9.390;2023-05-20T02:18:30;98392.88;;;9.82;100.00
53719;BME280;39616;48.872;9.390;2023-05-20T02:21:02;98385.56;;;9.82;100.00
53719;BME280;39616;48.872;9.390;2023-05-20T02:23:33;98393.19;;;9.80;100.00
53719;BME280;39616;48.872;9.390;2023-05-20T02:26:04;98394.34;;;9.74;100.00
53719;BME280;39616;48.872;9.390;2023-05-20T02:28:34;98398.16;;;9.73;100.00
53719;BME280;39616;48.872;9.390;2023-05-20T02:31:06;98393.59;;;9.68;100.00
53719;BME280;39616;48.872;9.390;2023-05-20T02:33:37;98394.41;;;9.69;100.00
53719;BME280;39616;48.872;9.390;2023-05-20T02:36:07;98397.91;;;9.70;100.00
53719;BME280;39616;48.872;9.390;2023-05-20T02:38:37;98398.19;;;9.68;100.00
53719;BME280;39616;48.872;9.390;2023-05-20T02:41:08;98399.03;;;9.68;100.00
53719;BME280;39616;48.872;9.390;2023-05-20T02:43:38;98400.41;;;9.66;100.00
53719;BME280;39616;48.872;9.390;2023-05-20T02:46:09;98398.72;;;9.70;100.00
53719;BME280;39616;48.872;9.390;2023-05-20T02:48:40;98398.94;;;9.74;100.00
53719;BME280;39616;48.872;9.390;2023-05-20T02:51:10;98384.03;;;9.76;100.00
53719;BME280;39616;48.872;9.390;2023-05-20T02:53:40;98397.28;;;9.78;100.00
53719;BME280;39616;48.872;9.390;2023-05-20T02:56:11;98395.13;;;9.75;100.00
53719;BME280;39616;48.872;9.390;2023-05-20T02:58:42;98397.03;;;9.74;100.00
53719;BME280;39616;48.872;9.390;2023-05-20T03:01:13;98394.41;;;9.69;100.00
53719;BME280;39616;48.872;9.390;2023-05-20T03:03:43;98398.19;;;9.68;100.00
53719;BME280;39616;48.872;9.390;2023-05-20T03:06:14;98398.78;;;9.65;100.00
53719;BME280;39616;48.872;9.390;2023-05-20T03:08:44;98400.00;;;9.54;100.00
53719;BME280;39616;48.872;9.390;2023-05-20T03:11:14;98402.97;;;9.52;100.00
53719;BME280;39616;48.872;9.390;2023-05-20T03:13:45;98404.31;;;9.55;100.00
53719;BME280;39616;48.872;9.390;2023-05-20T03:16:15;98398.59;;;9.56;100.00
53719;BME280;39616;48.872;9.390;2023-05-20T03:18:45;98402.34;;;9.60;100.00
53719;BME280;39616;48.872;9.390;2023-05-20T03:21:16;98400.44;;;9.61;100.00
53719;BME280;39616;48.872;9.390;2023-05-20T03:23:46;98396.13;;;9.60;100.00
53719;BME280;39616;48.872;9.390;2023-05-20T03:26:17;98389.69;;;9.56;100.00
53719;BME280;39616;48.872;9.390;2023-05-20T03:28:48;98394.81;;;9.57;100.00
53719;BME280;39616;48.872;9.390;2023-05-20T03:31:18;98390.22;;;9.58;100.00
53719;BME280;39616;48.872;9.390;2023-05-20T03:33:48;98391.81;;;9.59;100.00
53719;BME280;39616;48.872;9.390;2023-05-20T03:36:19;98387.50;;;9.58;100.00
53719;BME280;39616;48.872;9.390;2023-05-20T03:38:49;98389.91;;;9.59;100.00
53719;BME280;39616;48.872;9.390;2023-05-20T03:41:19;98393.16;;;9.61;100.00
53719;BME280;39616;48.872;9.390;2023-05-20T03:43:50;98392.31;;;9.61;100.00
53719;BME280;39616;48.872;9.390;2023-05-20T03:46:20;98393.66;;;9.63;100.00
53719;BME280;39616;48.872;9.390;2023-05-20T03:48:50;98399.13;;;9.58;100.00
53719;BME280;39616;48.872;9.390;2023-05-20T03:51:21;98406.47;;;9.53;100.00
53719;BME280;39616;48.872;9.390;2023-05-20T03:53:51;98405.97;;;9.51;100.00
53719;BME280;39616;48.872;9.390;2023-05-20T03:56:22;98407.28;;;9.53;100.00
53719;BME280;39616;48.872;9.390;2023-05-20T03:58:52;98406.72;;;9.56;100.00
53719;BME280;39616;48.872;9.390;2023-05-20T04:01:22;98410.69;;;9.64;100.00
53719;BME280;39616;48.872;9.390;2023-05-20T04:03:54;98406.53;;;9.72;100.00
53719;BME280;39616;48.872;9.390;2023-05-20T04:06:25;98412.16;;;9.80;100.00
53719;BME280;39616;48.872;9.390;2023-05-20T04:08:56;98404.97;;;9.89;100.00
53719;BME280;39616;48.872;9.390;2023-05-20T04:11:26;98399.44;;;10.00;100.00
53719;BME280;39616;48.872;9.390;2023-05-20T04:13:56;98398.28;;;10.06;100.00
53719;BME280;39616;48.872;9.390;2023-05-20T04:16:29;98402.03;;;10.10;100.00
53719;BME280;39616;48.872;9.390;2023-05-20T04:18:59;98399.00;;;10.11;100.00
53719;BME280;39616;48.872;9.390;2023-05-20T04:21:31;98399.59;;;10.08;100.00
53719;BME280;39616;48.872;9.390;2023-05-20T04:24:02;98406.47;;;10.20;100.00
53719;BME280;39616;48.872;9.390;2023-05-20T04:26:32;98403.56;;;10.16;100.00
53719;BME280;39616;48.872;9.390;2023-05-20T04:29:02;98406.16;;;10.26;100.00
53719;BME280;39616;48.872;9.390;2023-05-20T04:31:33;98392.91;;;10.44;100.00
53719;BME280;39616;48.872;9.390;2023-05-20T04:34:03;98397.00;;;10.60;100.00
53719;BME280;39616;48.872;9.390;2023-05-20T04:36:33;98394.34;;;10.74;100.00
53719;BME280;39616;48.872;9.390;2023-05-20T04:39:07;98384.34;;;10.88;100.00
53719;BME280;39616;48.872;9.390;2023-05-20T04:41:38;98376.75;;;11.04;100.00
53719;BME280;39616;48.872;9.390;2023-05-20T04:44:08;98376.00;;;11.17;100.00
53719;BME280;39616;48.872;9.390;2023-05-20T04:46:39;98384.16;;;11.31;100.00
53719;BME280;39616;48.872;9.390;2023-05-20T04:49:10;98385.97;;;11.35;100.00
53719;BME280;39616;48.872;9.390;2023-05-20T04:51:41;98388.00;;;11.44;100.00
53719;BME280;39616;48.872;9.390;2023-05-20T04:54:13;98383.97;;;11.55;100.00
53719;BME280;39616;48.872;9.390;2023-05-20T04:56:43;98385.09;;;11.68;100.00
53719;BME280;39616;48.872;9.390;2023-05-20T04:59:13;98379.16;;;11.79;100.00
53719;BME280;39616;48.872;9.390;2023-05-20T05:01:44;98388.03;;;11.85;100.00
53719;BME280;39616;48.872;9.390;2023-05-20T05:04:14;98384.69;;;11.88;100.00
53719;BME280;39616;48.872;9.390;2023-05-20T05:06:47;98385.91;;;11.96;100.00
53719;BME280;39616;48.872;9.390;2023-05-20T05:09:17;98386.00;;;12.04;100.00
53719;BME280;39616;48.872;9.390;2023-05-20T05:11:47;98381.16;;;12.15;100.00
53719;BME280;39616;48.872;9.390;2023-05-20T05:14:18;98370.66;;;12.22;100.00
53719;BME280;39616;48.872;9.390;2023-05-20T05:16:49;98376.47;;;12.29;100.00
53719;BME280;39616;48.872;9.390;2023-05-20T05:19:19;98370.13;;;12.34;100.00
53719;BME280;39616;48.872;9.390;2023-05-20T05:21:49;98368.09;;;12.40;100.00
53719;BME280;39616;48.872;9.390;2023-05-20T05:24:20;98370.91;;;12.48;100.00
53719;BME280;39616;48.872;9.390;2023-05-20T05:26:53;98371.91;;;12.52;99.83
53719;BME280;39616;48.872;9.390;2023-05-20T05:29:24;98366.38;;;12.66;98.09
53719;BME280;39616;48.872;9.390;2023-05-20T05:31:54;98363.13;;;12.78;98.28
53719;BME280;39616;48.872;9.390;2023-05-20T05:34:25;98360.63;;;12.90;96.32
53719;BME280;39616;48.872;9.390;2023-05-20T05:36:56;98353.50;;;13.03;94.08
53719;BME280;39616;48.872;9.390;2023-05-20T05:39:26;98351.63;;;13.12;93.69
53719;BME280;39616;48.872;9.390;2023-05-20T05:41:56;98347.75;;;13.27;91.78
53719;BME280;39616;48.872;9.390;2023-05-20T05:44:26;98348.91;;;13.35;90.51
53719;BME280;39616;48.872;9.390;2023-05-20T05:46:57;98346.72;;;13.54;89.82
53719;BME280;39616;48.872;9.390;2023-05-20T05:49:27;98349.84;;;13.70;88.96
53719;BME280;39616;48.872;9.390;2023-05-20T05:51:58;98343.94;;;13.85;88.54
53719;BME280;39616;48.872;9.390;2023-05-20T05:54:28;98348.09;;;13.91;86.98
53719;BME280;39616;48.872;9.390;2023-05-20T05:57:02;98347.81;;;14.01;85.29
53719;BME280;39616;48.872;9.390;2023-05-20T05:59:32;98345.13;;;14.10;86.13
53719;BME280;39616;48.872;9.390;2023-05-20T06:02:02;98337.41;;;14.21;83.87
53719;BME280;39616;48.872;9.390;2023-05-20T06:04:33;98335.84;;;14.29;83.46
53719;BME280;39616;48.872;9.390;2023-05-20T06:07:03;98337.59;;;14.42;83.83
53719;BME280;39616;48.872;9.390;2023-05-20T06:09:33;98337.47;;;14.56;82.54
53719;BME280;39616;48.872;9.390;2023-05-20T06:12:04;98336.31;;;14.74;81.06
53719;BME280;39616;48.872;9.390;2023-05-20T06:14:34;98338.72;;;14.67;80.98
53719;BME280;39616;48.872;9.390;2023-05-20T06:17:05;98342.09;;;14.81;81.42
53719;BME280;39616;48.872;9.390;2023-05-20T06:19:35;98336.78;;;14.76;81.97
53719;BME280;39616;48.872;9.390;2023-05-20T06:22:05;98332.75;;;15.00;81.23
53719;BME280;39616;48.872;9.390;2023-05-20T06:24:36;98327.41;;;15.12;80.03
53719;BME280;39616;48.872;9.390;2023-05-20T06:27:06;98327.19;;;15.26;78.68
53719;BME280;39616;48.872;9.390;2023-05-20T06:29:36;98330.88;;;15.30;77.99
53719;BME280;39616;48.872;9.390;2023-05-20T06:32:07;98320.69;;;15.39;77.30
53719;BME280;39616;48.872;9.390;2023-05-20T06:34:37;98320.31;;;15.58;77.38
53719;BME280;39616;48.872;9.390;2023-05-20T06:37:08;98318.69;;;15.65;76.78
53719;BME280;39616;48.872;9.390;2023-05-20T06:39:38;98317.22;;;15.68;76.16
53719;BME280;39616;48.872;9.390;2023-05-20T06:42:09;98312.44;;;15.56;75.84
53719;BME280;39616;48.872;9.390;2023-05-20T06:44:39;98316.75;;;15.57;75.91
53719;BME280;39616;48.872;9.390;2023-05-20T06:47:09;98313.19;;;15.74;75.86
53719;BME280;39616;48.872;9.390;2023-05-20T06:49:42;98316.69;;;15.75;75.64
53719;BME280;39616;48.872;9.390;2023-05-20T06:52:12;98313.19;;;15.74;75.23
53719;BME280;39616;48.872;9.390;2023-05-20T06:54:42;98311.56;;;16.03;74.04
53719;BME280;39616;48.872;9.390;2023-05-20T06:57:12;98312.56;;;16.40;73.61
53719;BME280;39616;48.872;9.390;2023-05-20T06:59:43;98315.06;;;16.66;71.95
53719;BME280;39616;48.872;9.390;2023-05-20T07:02:13;98309.72;;;16.70;71.17
53719;BME280;39616;48.872;9.390;2023-05-20T07:04:43;98317.72;;;16.75;71.15
53719;BME280;39616;48.872;9.390;2023-05-20T07:07:14;98307.31;;;16.68;70.64
53719;BME280;39616;48.872;9.390;2023-05-20T07:09:44;98303.47;;;16.48;71.36
53719;BME280;39616;48.872;9.390;2023-05-20T07:12:15;98296.28;;;17.22;70.65
53719;BME280;39616;48.872;9.390;2023-05-20T07:14:45;98301.75;;;17.10;69.38
53719;BME280;39616;48.872;9.390;2023-05-20T07:17:15;98295.25;;;17.14;69.28
53719;BME280;39616;48.872;9.390;2023-05-20T07:19:46;98296.38;;;17.13;69.96
53719;BME280;39616;48.872;9.390;2023-05-20T07:22:16;98288.06;;;17.59;68.70
53719;BME280;39616;48.872;9.390;2023-05-20T07:24:46;98283.97;;;17.53;68.40
53719;BME280;39616;48.872;9.390;2023-05-20T07:27:17;98282.94;;;17.82;67.25
53719;BME280;39616;48.872;9.390;2023-05-20T07:29:47;98279.28;;;17.78;66.52
53719;BME280;39616;48.872;9.390;2023-05-20T07:32:18;98284.19;;;17.72;67.13
53719;BME280;39616;48.872;9.390;2023-05-20T07:34:48;98283.25;;;17.93;66.47
53719;BME280;39616;48.872;9.390;2023-05-20T07:37:18;98279.34;;;18.06;65.94
53719;BME280;39616;48.872;9.390;2023-05-20T07:39:49;98283.03;;;18.38;64.45
53719;BME280;39616;48.872;9.390;2023-05-20T07:42:19;98275.59;;;19.11;63.17
53719;BME280;39616;48.872;9.390;2023-05-20T07:44:49;98275.25;;;19.28;62.21
53719;BME280;39616;48.872;9.390;2023-05-20T07:47:20;98281.41;;;19.88;59.81
53719;BME280;39616;48.872;9.390;2023-05-20T07:49:50;98268.47;;;19.89;60.02
53719;BME280;39616;48.872;9.390;2023-05-20T07:52:20;98278.56;;;18.74;62.49
53719;BME280;39616;48.872;9.390;2023-05-20T07:54:50;98269.22;;;18.34;65.21
53719;BME280;39616;48.872;9.390;2023-05-20T07:57:21;98264.59;;;18.95;63.38
53719;BME280;39616;48.872;9.390;2023-05-20T07:59:51;98262.19;;;19.57;61.10
53719;BME280;39616;48.872;9.390;2023-05-20T08:02:21;98263.63;;;19.03;62.13
53719;BME280;39616;48.872;9.390;2023-05-20T08:04:52;98264.06;;;18.89;63.48
53719;BME280;39616;48.872;9.390;2023-05-20T08:07:22;98262.16;;;18.77;63.81
53719;BME280;39616;48.872;9.390;2023-05-20T08:09:52;98251.50;;;18.32;63.48
53719;BME280;39616;48.872;9.390;2023-05-20T08:12:23;98256.09;;;18.56;64.43
53719;BME280;39616;48.872;9.390;2023-05-20T08:14:53;98255.94;;;18.65;63.74
53719;BME280;39616;48.872;9.390;2023-05-20T08:17:23;98260.66;;;18.52;63.94
53719;BME280;39616;48.872;9.390;2023-05-20T08:19:54;98252.44;;;18.80;63.36
53719;BME280;39616;48.872;9.390;2023-05-20T08:22:24;98253.53;;;18.35;64.20
53719;BME280;39616;48.872;9.390;2023-05-20T08:24:55;98255.31;;;17.38;67.64
53719;BME280;39616;48.872;9.390;2023-05-20T08:27:25;98256.97;;;17.92;66.91
53719;BME280;39616;48.872;9.390;2023-05-20T08:29:55;98263.72;;;17.82;67.81
53719;BME280;39616;48.872;9.390;2023-05-20T08:32:26;98269.00;;;17.75;66.76
53719;BME280;39616;48.872;9.390;2023-05-20T08:34:56;98262.03;;;17.90;66.24
53719;BME280;39616;48.872;9.390;2023-05-20T08:37:27;98267.19;;;17.54;66.64
53719;BME280;39616;48.872;9.390;2023-05-20T08:39:58;98269.47;;;17.65;66.89
53719;BME280;39616;48.872;9.390;2023-05-20T08:42:28;98261.31;;;18.05;65.64
53719;BME280;39616;48.872;9.390;2023-05-20T08:44:59;98262.63;;;18.95;63.59
53719;BME280;39616;48.872;9.390;2023-05-20T08:47:30;98257.88;;;19.08;61.41
53719;BME280;39616;48.872;9.390;2023-05-20T08:50:01;98260.59;;;18.92;63.15
53719;BME280;39616;48.872;9.390;2023-05-20T08:52:33;98258.16;;;19.19;62.53
53719;BME280;39616;48.872;9.390;2023-05-20T08:55:06;98258.16;;;19.19;61.68
53719;BME280;39616;48.872;9.390;2023-05-20T08:57:39;98258.56;;;19.52;61.06
53719;BME280;39616;48.872;9.390;2023-05-20T09:00:12;98252.41;;;20.10;59.50
53719;BME280;39616;48.872;9.390;2023-05-20T09:02:46;98253.00;;;21.01;57.79
53719;BME280;39616;48.872;9.390;2023-05-20T09:05:16;98245.56;;;20.82;57.72
53719;BME280;39616;48.872;9.390;2023-05-20T09:07:47;98240.66;;;21.93;54.86
53719;BME280;39616;48.872;9.390;2023-05-20T09:10:19;98247.41;;;21.20;56.33
53719;BME280;39616;48.872;9.390;2023-05-20T09:12:49;98251.47;;;20.61;56.48
53719;BME280;39616;48.872;9.390;2023-05-20T09:15:20;98246.53;;;20.31;58.61
53719;BME280;39616;48.872;9.390;2023-05-20T09:17:50;98250.59;;;20.37;58.38
53719;BME280;39616;48.872;9.390;2023-05-20T09:20:21;98244.63;;;20.51;57.42
53719;BME280;39616;48.872;9.390;2023-05-20T09:22:51;98248.44;;;20.66;57.70
53719;BME280;39616;48.872;9.390;2023-05-20T09:25:22;98244.84;;;20.85;58.42
53719;BME280;39616;48.872;9.390;2023-05-20T09:27:52;98241.66;;;20.83;57.03
53719;BME280;39616;48.872;9.390;2023-05-20T09:30:24;98233.94;;;21.91;53.67
53719;BME280;39616;48.872;9.390;2023-05-20T09:32:55;98228.25;;;22.07;53.08
53719;BME280;39616;48.872;9.390;2023-05-20T09:35:26;98230.50;;;21.71;54.30
53719;BME280;39616;48.872;9.390;2023-05-20T09:37:57;98232.78;;;21.16;55.34
53719;BME280;39616;48.872;9.390;2023-05-20T09:40:28;98237.63;;;20.38;56.71
53719;BME280;39616;48.872;9.390;2023-05-20T09:43:06;98229.16;;;20.27;58.64
53719;BME280;39616;48.872;9.390;2023-05-20T09:45:37;98236.03;;;20.37;57.68
53719;BME280;39616;48.872;9.390;2023-05-20T09:48:08;98234.03;;;20.53;57.24
53719;BME280;39616;48.872;9.390;2023-05-20T09:50:40;98231.09;;;20.46;57.86
53719;BME280;39616;48.872;9.390;2023-05-20T09:53:12;98227.03;;;21.25;54.29
53719;BME280;39616;48.872;9.390;2023-05-20T09:55:44;98214.09;;;22.12;52.51
53719;BME280;39616;48.872;9.390;2023-05-20T09:58:14;98221.09;;;22.70;51.34
53719;BME280;39616;48.872;9.390;2023-05-20T10:00:45;98210.72;;;22.97;50.22
53719;BME280;39616;48.872;9.390;2023-05-20T10:03:17;98220.00;;;22.78;50.38
53719;BME280;39616;48.872;9.390;2023-05-20T10:06:02;98222.00;;;21.57;52.69
53719;BME280;39616;48.872;9.390;2023-05-20T10:08:57;98213.00;;;20.45;55.09
53719;BME280;39616;48.872;9.390;2023-05-20T10:12:14;98198.28;;;20.80;55.92
53719;BME280;39616;48.872;9.390;2023-05-20T10:15:02;98209.56;;;20.71;55.60
53719;BME280;39616;48.872;9.390;2023-05-20T10:20:48;98194.44;;;21.57;52.87
53719;BME280;39616;48.872;9.390;2023-05-20T10:23:28;98185.75;;;22.15;53.10
53719;BME280;39616;48.872;9.390;2023-05-20T10:26:05;98176.38;;;22.60;52.28
53719;BME280;39616;48.872;9.390;2023-05-20T10:28:37;98190.09;;;22.50;51.57
53719;BME280;39616;48.872;9.390;2023-05-20T10:31:21;98178.94;;;23.21;49.27
53719;BME280;39616;48.872;9.390;2023-05-20T10:33:53;98180.22;;;23.41;48.48
53719;BME280;39616;48.872;9.390;2023-05-20T10:36:27;98186.72;;;22.67;49.97
53719;BME280;39616;48.872;9.390;2023-05-20T10:38:59;98184.19;;;22.51;51.11
53719;BME280;39616;48.872;9.390;2023-05-20T10:41:30;98185.38;;;22.16;50.83
53719;BME280;39616;48.872;9.390;2023-05-20T10:44:02;98173.31;;;22.02;51.79
53719;BME280;39616;48.872;9.390;2023-05-20T10:46:33;98176.63;;;21.81;51.62
53719;BME280;39616;48.872;9.390;2023-05-20T10:49:04;98173.84;;;22.11;50.92
53719;BME280;39616;48.872;9.390;2023-05-20T10:54:08;98168.88;;;22.24;50.48
53719;BME280;39616;48.872;9.390;2023-05-20T10:56:50;98179.16;;;21.93;51.68
53719;BME280;39616;48.872;9.390;2023-05-20T10:59:21;98171.75;;;22.01;51.07
53719;BME280;39616;48.872;9.390;2023-05-20T11:01:52;98163.53;;;22.38;50.95
53719;BME280;39616;48.872;9.390;2023-05-20T11:04:22;98168.16;;;22.67;50.03
53719;BME280;39616;48.872;9.390;2023-05-20T11:06:53;98168.50;;;21.91;51.38
53719;BME280;39616;48.872;9.390;2023-05-20T11:09:24;98148.34;;;21.87;52.01
53719;BME280;39616;48.872;9.390;2023-05-20T11:11:54;98152.69;;;21.88;51.53
53719;BME280;39616;48.872;9.390;2023-05-20T11:14:29;98149.59;;;21.63;52.97
53719;BME280;39616;48.872;9.390;2023-05-20T11:17:00;98144.16;;;21.40;51.74
53719;BME280;39616;48.872;9.390;2023-05-20T11:19:30;98142.25;;;22.08;50.65
53719;BME280;39616;48.872;9.390;2023-05-20T11:22:00;98139.72;;;22.26;51.32
53719;BME280;39616;48.872;9.390;2023-05-20T11:24:31;98136.38;;;21.76;52.59
53719;BME280;39616;48.872;9.390;2023-05-20T11:27:01;98139.50;;;21.75;52.10
53719;BME280;39616;48.872;9.390;2023-05-20T11:29:31;98133.47;;;21.65;51.89
53719;BME280;39616;48.872;9.390;2023-05-20T11:32:02;98125.66;;;22.79;49.34
53719;BME280;39616;48.872;9.390;2023-05-20T11:34:34;98126.50;;;23.42;49.12
53719;BME280;39616;48.872;9.390;2023-05-20T11:37:09;98132.28;;;23.89;47.71
53719;BME280;39616;48.872;9.390;2023-05-20T11:39:39;98122.41;;;23.18;49.08
53719;BME280;39616;48.872;9.390;2023-05-20T11:42:10;98124.38;;;22.70;48.63
53719;BME280;39616;48.872;9.390;2023-05-20T11:44:43;98127.53;;;23.89;47.48
53719;BME280;39616;48.872;9.390;2023-05-20T11:47:14;98122.81;;;23.86;47.52
53719;BME280;39616;48.872;9.390;2023-05-20T11:49:47;98110.28;;;24.35;45.60
53719;BME280;39616;48.872;9.390;2023-05-20T11:52:18;98110.72;;;23.46;48.24
53719;BME280;39616;48.872;9.390;2023-05-20T11:54:52;98110.34;;;22.93;48.25
53719;BME280;39616;48.872;9.390;2023-05-20T11:57:22;98107.50;;;23.41;48.50
53719;BME280;39616;48.872;9.390;2023-05-20T11:59:53;98100.25;;;23.84;46.96
53719;BME280;39616;48.872;9.390;2023-05-20T12:02:23;98084.19;;;24.57;45.82
53719;BME280;39616;48.872;9.390;2023-05-20T12:04:53;98100.66;;;23.86;46.78
53719;BME280;39616;48.872;9.390;2023-05-20T12:07:24;98095.41;;;23.67;47.29
53719;BME280;39616;48.872;9.390;2023-05-20T12:09:55;98086.78;;;23.79;46.63
53719;BME280;39616;48.872;9.390;2023-05-20T12:12:26;98096.00;;;23.28;47.65
53719;BME280;39616;48.872;9.390;2023-05-20T12:14:56;98091.28;;;22.32;49.89
53719;BME280;39616;48.872;9.390;2023-05-20T12:17:26;98088.22;;;22.45;50.36
53719;BME280;39616;48.872;9.390;2023-05-20T12:19:56;98092.00;;;22.70;49.35
53719;BME280;39616;48.872;9.390;2023-05-20T12:22:27;98097.75;;;22.95;49.12
53719;BME280;39616;48.872;9.390;2023-05-20T12:24:57;98078.13;;;23.14;48.11
53719;BME280;39616;48.872;9.390;2023-05-20T12:27:27;98079.09;;;23.47;48.04
53719;BME280;39616;48.872;9.390;2023-05-20T12:29:58;98080.88;;;23.14;48.58
53719;BME280;39616;48.872;9.390;2023-05-20T12:32:28;98089.34;;;23.43;46.68
53719;BME280;39616;48.872;9.390;2023-05-20T12:34:58;98084.63;;;23.47;47.08
53719;BME280;39616;48.872;9.390;2023-05-20T12:37:29;98086.09;;;23.30;47.12
53719;BME280;39616;48.872;9.390;2023-05-20T12:39:59;98082.94;;;23.25;48.37
53719;BME280;39616;48.872;9.390;2023-05-20T12:42:30;98086.06;;;23.23;46.96
53719;BME280;39616;48.872;9.390;2023-05-20T12:45:00;98079.91;;;23.55;46.21
53719;BME280;39616;48.872;9.390;2023-05-20T12:47:31;98077.91;;;23.52;45.54
53719;BME280;39616;48.872;9.390;2023-05-20T12:50:02;98075.94;;;23.52;45.93
53719;BME280;39616;48.872;9.390;2023-05-20T12:52:32;98074.09;;;23.74;45.22
53719;BME280;39616;48.872;9.390;2023-05-20T12:55:03;98074.19;;;23.99;44.71
53719;BME280;39616;48.872;9.390;2023-05-20T12:57:34;98074.22;;;24.21;44.18
53719;BME280;39616;48.872;9.390;2023-05-20T13:00:06;98073.00;;;24.11;45.47
53719;BME280;39616;48.872;9.390;2023-05-20T13:02:38;98060.38;;;24.28;44.42
53719;BME280;39616;48.872;9.390;2023-05-20T13:05:09;98060.81;;;24.66;44.17
53719;BME280;39616;48.872;9.390;2023-05-20T13:07:40;98064.38;;;24.70;43.88
53719;BME280;39616;48.872;9.390;2023-05-20T13:10:10;98056.06;;;24.66;43.57
53719;BME280;39616;48.872;9.390;2023-05-20T13:12:41;98064.38;;;24.34;45.09
53719;BME280;39616;48.872;9.390;2023-05-20T13:15:15;98059.47;;;23.81;45.97
53719;BME280;39616;48.872;9.390;2023-05-20T13:17:45;98061.16;;;24.25;45.44
53719;BME280;39616;48.872;9.390;2023-05-20T13:20:16;98059.19;;;24.22;44.35
53719;BME280;39616;48.872;9.390;2023-05-20T13:22:46;98062.81;;;24.51;44.48
53719;BME280;39616;48.872;9.390;2023-05-20T13:25:17;98065.56;;;24.44;44.79
53719;BME280;39616;48.872;9.390;2023-05-20T13:27:47;98050.16;;;24.50;44.30